Terminal Aerodrome Forecast
Issued by NWS Sterling, VA

Current Version | Previous Version | Graphics & Text | Print | Product List | Glossary On
Versions: 1 2 3 4 5 6 7 8 9 10 11 12 13 14 15 16 17 18 19 20 21 22
000
FTUS41 KLWX 240830 AAA
TAFDCA
TAF AMD
KDCA 240830Z 2409/2506 28004KT 5SM BR SCT070 BKN200
     FM241200 31007KT P6SM FEW140 SCT250
     FM250200 25005KT P6SM FEW250=

USA.gov is the U.S. government's official web portal to all federal, state and local government web resources and services.